Wrigley, Canada
Current Conditions -  °F | °C
As of 5:00 AM on Monday 22 Dec 2014 (Local Time) from CYFS Reporting Station
Light Snow Light Snow  
Wind Chill:   Ceiling: 2400
Heat Index:   Visibility: 15mi
Dew Point:   Wind: 0mph
Humidity: 78%   Direction: NA
Pressure: 29.81"   Gusts: NA
Location:  63.27°N, 123.6°W
Report Text: CYFS 221200Z 00000KT 15SM -SN OVC024 M15/M18 A2981 RMK SC8 /S02/ WND ESTD SLP112
Loading
Personal Weather Stations






























Interactive Weather Map New forecast layout! Learn more

10-Day Weather Forecast

Advertisements
Track Severe Weather on mobile